M I D A S
Marine Information and Data Acquisition System
Tripno 1438 of the Zeeleeuw from 2008-03-14 05:09:52 to 2008-03-14 16:23:57
Back to CruiseResearch ActivitiesStationsMapUnderway DataData graphs

EquipmentUnitsComment
TimeDGPSUTC
LatitudeDGPSDM.mWGS84
LongitudeDGPSDM.mWGS84
HeadingGyrodeg 
SOGDGPSknotsSpeed over ground
COGDGPSdegCourse over ground
DepthEcho soundermeters200 kHz
Missing or incorrect values are displayed as -999
Navigation data collected by the RV Zeeleeuw from 2008-03-14 05:09:35 to 2008-03-14 16:34:50
                                                                                    Next 1000 lines
Time Latitude Longitude Heading SOG COG Depth
2008-03-14 05:09:44 51°13.662 2°55.955 112.3 0.1 202 9.6
2008-03-14 05:09:50 51°13.662 2°55.955 111 0.1 250 9.7
2008-03-14 05:09:54 51°13.662 2°55.955 109.8 0.3 250 9.5
2008-03-14 05:09:58 51°13.662 2°55.954 109.1 0.5 292 9.6
2008-03-14 05:10:04 51°13.663 2°55.952 108.8 0.7 281 9.6
2008-03-14 05:10:10 51°13.663 2°55.95 108.5 1 289 9.6
2008-03-14 05:10:13 51°13.664 2°55.949 108.5 1.2 287 9.5
2008-03-14 05:10:18 51°13.665 2°55.946 108.5 1.4 292 9.5
2008-03-14 05:10:24 51°13.666 2°55.941 108.8 1.7 290 9.6
2008-03-14 05:10:29 51°13.667 2°55.938 108.9 2 292 -999
2008-03-14 05:10:34 51°13.668 2°55.933 109 2.2 292 -999
2008-03-14 05:10:39 51°13.669 2°55.929 109 2.3 291 -999
2008-03-14 05:10:45 51°13.671 2°55.923 108.8 2.4 291 -999
2008-03-14 05:10:49 51°13.672 2°55.918 108.4 2.6 290 -999
2008-03-14 05:10:54 51°13.674 2°55.913 107.8 2.7 289 -999
2008-03-14 05:10:59 51°13.675 2°55.907 107 2.8 289 -999
2008-03-14 05:11:05 51°13.677 2°55.899 106.1 3 287 -999
2008-03-14 05:11:09 51°13.678 2°55.894 105.2 3.1 286 -999
2008-03-14 05:11:14 51°13.679 2°55.888 104.4 3.1 285 -999
2008-03-14 05:11:19 51°13.68 2°55.881 104 3.2 285 -999
2008-03-14 05:11:24 51°13.682 2°55.874 104 3.2 288 -999
2008-03-14 05:11:29 51°13.683 2°55.867 104.2 3.2 284 -999
2008-03-14 05:11:34 51°13.683 2°55.861 104.9 3.2 284 -999
2008-03-14 05:11:39 51°13.684 2°55.854 106 3.2 283 -999
2008-03-14 05:11:44 51°13.685 2°55.847 107.2 3.2 285 -999
2008-03-14 05:11:50 51°13.687 2°55.839 108.5 3.2 286 -999
2008-03-14 05:11:54 51°13.688 2°55.833 109.6 3.2 287 -999
2008-03-14 05:11:59 51°13.689 2°55.827 110.7 3.2 288 -999
2008-03-14 05:12:04 51°13.691 2°55.82 111.7 3.3 289 5.3
2008-03-14 05:12:09 51°13.693 2°55.813 113 3.4 291 -999
2008-03-14 05:12:14 51°13.695 2°55.806 113.9 3.5 292 -999
2008-03-14 05:12:19 51°13.697 2°55.799 115.2 3.5 293 -999
2008-03-14 05:12:24 51°13.699 2°55.791 116.6 3.6 294 -999
2008-03-14 05:12:29 51°13.701 2°55.784 117.5 3.7 295 -999
2008-03-14 05:12:34 51°13.703 2°55.777 118.6 3.7 296 -999
2008-03-14 05:12:40 51°13.706 2°55.768 119.6 3.8 298 -999
2008-03-14 05:12:44 51°13.708 2°55.762 120.4 3.8 299 -999
2008-03-14 05:12:49 51°13.711 2°55.755 121.3 3.6 300 -999
2008-03-14 05:12:54 51°13.713 2°55.749 122.6 3.3 301 -999
2008-03-14 05:12:59 51°13.715 2°55.743 123.5 2.8 299 -999
2008-03-14 05:13:05 51°13.717 2°55.738 123.6 2.4 301 -999
2008-03-14 05:13:09 51°13.718 2°55.735 123 2.1 297 -999
2008-03-14 05:13:14 51°13.72 2°55.731 122.6 1.9 300 15.8
2008-03-14 05:13:19 51°13.721 2°55.729 122.2 1.5 297 15.3
2008-03-14 05:13:24 51°13.721 2°55.726 121.8 1.1 296 15.1
2008-03-14 05:13:29 51°13.722 2°55.725 120.5 0.7 296 15
2008-03-14 05:13:34 51°13.722 2°55.724 118.4 0.4 298 15
2008-03-14 05:13:39 51°13.722 2°55.724 115.9 0.1 356 15
2008-03-14 05:13:44 51°13.722 2°55.725 113 0.3 96 14.9
2008-03-14 05:13:49 51°13.722 2°55.726 109.5 0.6 99 15
2008-03-14 05:13:54 51°13.722 2°55.728 105.8 0.8 96 15.1
2008-03-14 05:13:59 51°13.722 2°55.73 101.5 1.1 94 15.3
2008-03-14 05:14:04 51°13.722 2°55.733 97.1 1.3 93 15.6
2008-03-14 05:14:09 51°13.722 2°55.737 92.4 1.5 92 15.7
2008-03-14 05:14:14 51°13.722 2°55.74 87.9 1.5 86 15.8
2008-03-14 05:14:19 51°13.722 2°55.743 83.4 1.4 85 15.8
2008-03-14 05:14:24 51°13.722 2°55.746 80.3 1.1 86 16
2008-03-14 05:14:29 51°13.722 2°55.747 78.3 0.6 102 16.1
2008-03-14 05:14:34 51°13.722 2°55.747 76.3 0.2 127 16.2
2008-03-14 05:14:39 51°13.721 2°55.747 74.5 0.4 201 16.1
2008-03-14 05:14:44 51°13.721 2°55.746 73.2 0.6 235 16.1
2008-03-14 05:14:49 51°13.72 2°55.744 72.6 1 242 16.2
2008-03-14 05:14:54 51°13.719 2°55.741 72.4 1.2 249 16
2008-03-14 05:14:59 51°13.718 2°55.738 72.4 1.5 248 16
2008-03-14 05:15:04 51°13.718 2°55.735 72.4 1.8 252 -999
2008-03-14 05:15:09 51°13.716 2°55.731 72.5 1.9 254 4.9
2008-03-14 05:15:14 51°13.716 2°55.727 72.5 1.8 252 -999
2008-03-14 05:15:19 51°13.715 2°55.723 72.3 1.6 254 -999
2008-03-14 05:15:24 51°13.714 2°55.721 71.9 1 254 -999
2008-03-14 05:15:29 51°13.714 2°55.72 70.2 0.3 272 -999
2008-03-14 05:15:34 51°13.714 2°55.72 66.5 0.4 47 -999
2008-03-14 05:15:39 51°13.715 2°55.722 61 1.1 47 -999
2008-03-14 05:15:45 51°13.717 2°55.725 54.5 1.6 45 -999
2008-03-14 05:15:49 51°13.719 2°55.727 47.1 2 42 -999
2008-03-14 05:15:54 51°13.721 2°55.73 39.7 2.2 38 -999
2008-03-14 05:15:59 51°13.723 2°55.733 34.5 2 30 -999
2008-03-14 05:16:04 51°13.726 2°55.735 28.9 1.9 31 -999
2008-03-14 05:16:09 51°13.728 2°55.737 26.2 1.4 31 -999
2008-03-14 05:16:14 51°13.728 2°55.739 24.1 0.8 38 -999
2008-03-14 05:16:19 51°13.729 2°55.739 21.4 0.4 45 15
2008-03-14 05:16:24 51°13.728 2°55.74 20.1 0.3 154 15
2008-03-14 05:16:29 51°13.728 2°55.739 18.8 0.7 182 15
2008-03-14 05:16:34 51°13.726 2°55.739 17.8 1.1 188 15.1
2008-03-14 05:16:39 51°13.724 2°55.739 17.1 1.6 193 -999
2008-03-14 05:16:44 51°13.721 2°55.738 16.9 1.9 193 -999
2008-03-14 05:16:49 51°13.719 2°55.737 16.9 1.8 197 -999
2008-03-14 05:16:54 51°13.716 2°55.736 17.4 1.7 192 -999
2008-03-14 05:16:59 51°13.714 2°55.735 18.1 1.6 198 -999
2008-03-14 05:17:04 51°13.712 2°55.734 18.9 1.2 194 -999
2008-03-14 05:17:09 51°13.712 2°55.734 18.9 0.5 199 -999
2008-03-14 05:17:14 51°13.712 2°55.734 17.5 0.1 22 -999
2008-03-14 05:17:19 51°13.713 2°55.734 13.7 0.9 2 -999
2008-03-14 05:17:24 51°13.715 2°55.734 6.8 1.6 1 -999
2008-03-14 05:17:29 51°13.718 2°55.734 359.8 2.1 353 -999
2008-03-14 05:17:34 51°13.721 2°55.733 352.2 2.5 350 -999
2008-03-14 05:17:39 51°13.725 2°55.731 346.4 3 346 -999
2008-03-14 05:17:44 51°13.73 2°55.728 339.6 3.7 336 4.7
2008-03-14 05:17:49 51°13.735 2°55.724 335.3 4.3 335 -999
2008-03-14 05:17:54 51°13.741 2°55.719 333.5 4.8 332 14.3
2008-03-14 05:17:59 51°13.748 2°55.713 332.3 5.4 332 14
2008-03-14 05:18:04 51°13.755 2°55.707 332 6 331 14.1
2008-03-14 05:18:09 51°13.763 2°55.7 331.9 6.5 331 13.8
2008-03-14 05:18:14 51°13.771 2°55.693 331.6 6.8 331 13.5
2008-03-14 05:18:19 51°13.78 2°55.686 331.5 7.1 331 13
2008-03-14 05:18:24 51°13.79 2°55.678 331.6 7.4 332 12.9
2008-03-14 05:18:29 51°13.799 2°55.67 331.8 7.8 331 13
2008-03-14 05:18:34 51°13.809 2°55.662 331.7 8 332 12.9
2008-03-14 05:18:39 51°13.819 2°55.653 332.1 8.1 332 13
2008-03-14 05:18:44 51°13.829 2°55.644 332.3 8.3 331 13.1
2008-03-14 05:18:49 51°13.84 2°55.636 332 8.5 332 13.2
2008-03-14 05:18:54 51°13.85 2°55.627 332.6 8.6 333 13.4
2008-03-14 05:18:59 51°13.86 2°55.616 333 8.7 332 13.4
2008-03-14 05:19:04 51°13.871 2°55.608 333 8.8 334 14
2008-03-14 05:19:09 51°13.883 2°55.6 333.7 8.8 333 14.1
2008-03-14 05:19:14 51°13.894 2°55.591 333.8 8.9 332 14
2008-03-14 05:19:19 51°13.905 2°55.583 333.4 8.9 333 13.8
2008-03-14 05:19:24 51°13.916 2°55.574 333.3 8.9 333 14
2008-03-14 05:19:29 51°13.927 2°55.565 333.6 9 333 14
2008-03-14 05:19:34 51°13.938 2°55.556 333.6 9 333 13.9
2008-03-14 05:19:39 51°13.949 2°55.546 333.7 9 333 14.1
2008-03-14 05:19:44 51°13.96 2°55.537 334.2 9 334 14
2008-03-14 05:19:49 51°13.971 2°55.527 334.3 9 333 13.9
2008-03-14 05:19:54 51°13.982 2°55.518 334.3 9 334 13.8
2008-03-14 05:19:59 51°13.993 2°55.509 334.2 9.1 333 14
2008-03-14 05:20:04 51°14.004 2°55.5 334 9 334 13.9
2008-03-14 05:20:09 51°14.015 2°55.491 334.7 9 334 13.8
2008-03-14 05:20:14 51°14.026 2°55.482 335.1 9 333 13.6
2008-03-14 05:20:19 51°14.037 2°55.473 334.1 9 334 13.7
2008-03-14 05:20:24 51°14.048 2°55.464 333.9 9 335 14
2008-03-14 05:20:29 51°14.06 2°55.456 335.1 9.1 335 13.4
2008-03-14 05:20:34 51°14.071 2°55.447 336 9.1 335 13.3
2008-03-14 05:20:39 51°14.082 2°55.438 336.2 9.1 335 13.1
2008-03-14 05:20:44 51°14.094 2°55.429 335.2 9.1 334 12.7
2008-03-14 05:20:49 51°14.105 2°55.421 334.6 9.1 334 12.2
2008-03-14 05:20:54 51°14.116 2°55.412 334.6 9.1 334 13
2008-03-14 05:20:59 51°14.128 2°55.403 334.6 9.1 333 13.1
2008-03-14 05:21:04 51°14.139 2°55.393 333.7 9.1 331 13.4
2008-03-14 05:21:09 51°14.15 2°55.383 332.2 9.1 331 13.8
2008-03-14 05:21:14 51°14.16 2°55.373 331.3 9.2 330 14
2008-03-14 05:21:19 51°14.171 2°55.362 330.6 9.2 328 13.6
2008-03-14 05:21:24 51°14.182 2°55.351 328.9 9.3 326 13.7
2008-03-14 05:21:29 51°14.193 2°55.339 326.9 9.4 325 13.8
2008-03-14 05:21:34 51°14.203 2°55.326 325.7 9.4 324 13.7
2008-03-14 05:21:39 51°14.213 2°55.313 324.7 9.4 322 14
2008-03-14 05:21:44 51°14.223 2°55.299 323.1 9.4 320 13.9
2008-03-14 05:21:49 51°14.232 2°55.285 320.4 9.4 317 13.9
2008-03-14 05:21:54 51°14.241 2°55.27 317.5 9.4 315 14
2008-03-14 05:21:59 51°14.251 2°55.256 316.1 9.4 314 13.7
2008-03-14 05:22:04 51°14.26 2°55.241 314.5 9.5 312 13.4
2008-03-14 05:22:09 51°14.269 2°55.225 313.1 9.5 313 13.5
2008-03-14 05:22:14 51°14.278 2°55.21 312.5 9.5 312 13.5
2008-03-14 05:22:19 51°14.286 2°55.194 312.3 9.5 311 13.4
2008-03-14 05:22:24 51°14.295 2°55.178 311.3 9.6 310 13.1
2008-03-14 05:22:29 51°14.303 2°55.161 310.2 9.7 308 12.8
2008-03-14 05:22:34 51°14.311 2°55.144 308.8 9.7 308 12.8
2008-03-14 05:22:39 51°14.319 2°55.127 307.6 9.8 308 13.2
2008-03-14 05:22:44 51°14.328 2°55.11 307.3 9.9 309 13.6
2008-03-14 05:22:49 51°14.337 2°55.093 308.7 9.9 310 14
2008-03-14 05:22:54 51°14.346 2°55.076 309.8 10 309 13.9
2008-03-14 05:22:59 51°14.355 2°55.059 309.8 10 310 14
2008-03-14 05:23:04 51°14.364 2°55.042 309.9 10.1 311 13.8
2008-03-14 05:23:09 51°14.373 2°55.026 310.4 10.1 313 13.6
2008-03-14 05:23:14 51°14.384 2°55.011 311.2 10.1 316 13.4
2008-03-14 05:23:19 51°14.394 2°54.996 312.7 10.1 320 13.1
2008-03-14 05:23:24 51°14.406 2°54.983 314.8 10.2 323 13.4
2008-03-14 05:23:29 51°14.417 2°54.97 317.1 10.1 324 13.4
2008-03-14 05:23:34 51°14.429 2°54.957 318.7 10.1 326 13.4
2008-03-14 05:23:39 51°14.44 2°54.945 319.9 10 326 13.7
2008-03-14 05:23:44 51°14.452 2°54.933 320.1 10 327 13.4
2008-03-14 05:23:49 51°14.463 2°54.92 319.8 10 326 13.4
2008-03-14 05:23:54 51°14.474 2°54.908 319.7 10 325 13.3
2008-03-14 05:23:59 51°14.486 2°54.895 319.3 9.9 324 12.9
2008-03-14 05:24:04 51°14.497 2°54.882 318 10 323 13
2008-03-14 05:24:09 51°14.508 2°54.868 316.7 10 322 13.1
2008-03-14 05:24:14 51°14.519 2°54.855 316.1 10.1 322 12.7
2008-03-14 05:24:19 51°14.53 2°54.841 316 10.1 322 12.9
2008-03-14 05:24:24 51°14.541 2°54.827 315.8 10.1 321 12.7
2008-03-14 05:24:29 51°14.552 2°54.813 315 10.1 319 12.7
2008-03-14 05:24:34 51°14.562 2°54.798 313.2 10 317 12.6
2008-03-14 05:24:39 51°14.572 2°54.783 311.3 10 316 12.7
2008-03-14 05:24:44 51°14.582 2°54.767 309.9 10 315 12.6
2008-03-14 05:24:49 51°14.592 2°54.752 308.9 10.1 316 12.7
2008-03-14 05:24:54 51°14.602 2°54.735 309.1 10.2 315 12.7
2008-03-14 05:24:59 51°14.612 2°54.72 309.2 10.2 315 12.6
2008-03-14 05:25:04 51°14.622 2°54.704 309.1 10.2 315 12.7
2008-03-14 05:25:09 51°14.632 2°54.688 309.6 10.3 316 12.7
2008-03-14 05:25:14 51°14.642 2°54.672 309.8 10.3 316 12.6
2008-03-14 05:25:19 51°14.653 2°54.656 310.1 10.4 316 12.7
2008-03-14 05:25:24 51°14.663 2°54.64 310 10.5 314 12.6
2008-03-14 05:25:29 51°14.673 2°54.623 308.4 10.6 314 12.7
2008-03-14 05:25:34 51°14.683 2°54.606 307.6 10.7 313 12.6
2008-03-14 05:25:39 51°14.693 2°54.588 307 10.7 312 12.6
2008-03-14 05:25:44 51°14.703 2°54.57 306.6 10.9 311 12.7
2008-03-14 05:25:49 51°14.713 2°54.551 306.2 11.1 311 12.6
2008-03-14 05:25:54 51°14.723 2°54.533 306.1 11.3 311 12.8
2008-03-14 05:25:59 51°14.734 2°54.514 306.2 11.5 311 12.8
2008-03-14 05:26:04 51°14.743 2°54.494 305.6 11.5 309 12.7
2008-03-14 05:26:09 51°14.754 2°54.474 303.9 11.6 311 12.6
2008-03-14 05:26:14 51°14.764 2°54.454 304 11.5 308 12.8
2008-03-14 05:26:19 51°14.773 2°54.434 303 11.6 307 12.5
2008-03-14 05:26:24 51°14.783 2°54.413 302.1 11.7 307 12.4
2008-03-14 05:26:29 51°14.793 2°54.393 301.7 11.6 308 12.3
2008-03-14 05:26:34 51°14.803 2°54.373 302.5 11.7 308 12.4
2008-03-14 05:26:39 51°14.813 2°54.353 302.7 11.7 308 12.6
2008-03-14 05:26:44 51°14.823 2°54.332 302.4 11.8 309 12.6
2008-03-14 05:26:49 51°14.834 2°54.312 302.6 11.8 308 12.4
2008-03-14 05:26:54 51°14.844 2°54.291 302.8 11.8 308 12.6
2008-03-14 05:26:59 51°14.853 2°54.27 302.5 11.8 307 12.2
2008-03-14 05:27:04 51°14.863 2°54.249 301.8 11.8 307 12.6
2008-03-14 05:27:09 51°14.873 2°54.229 301.8 11.8 307 12.2
2008-03-14 05:27:14 51°14.883 2°54.208 302.2 11.8 307 12
2008-03-14 05:27:19 51°14.893 2°54.187 302.5 11.8 307 11.9
2008-03-14 05:27:24 51°14.903 2°54.166 302.6 11.8 307 12
2008-03-14 05:27:29 51°14.913 2°54.146 302.6 11.7 307 11.9
2008-03-14 05:27:34 51°14.922 2°54.125 302.9 11.8 308 11.9
2008-03-14 05:27:39 51°14.932 2°54.104 303.3 11.8 307 11.8
2008-03-14 05:27:44 51°14.942 2°54.084 303.5 11.8 307 12.3
2008-03-14 05:27:49 51°14.952 2°54.063 303.2 11.8 307 12.2
2008-03-14 05:27:54 51°14.962 2°54.042 303.1 11.7 307 12.2
2008-03-14 05:27:59 51°14.972 2°54.021 303 11.8 307 12.2
2008-03-14 05:28:04 51°14.982 2°54 303.4 11.8 306 12.4
2008-03-14 05:28:09 51°14.991 2°53.979 303 11.9 307 12.4
2008-03-14 05:28:14 51°15.001 2°53.958 302.9 11.8 307 12.8
2008-03-14 05:28:19 51°15.011 2°53.937 303.2 11.8 308 12.6
2008-03-14 05:28:24 51°15.021 2°53.916 303 11.9 307 12.6
2008-03-14 05:28:29 51°15.031 2°53.895 303.6 11.9 308 12.6
2008-03-14 05:28:34 51°15.041 2°53.874 303.5 11.9 306 12.1
2008-03-14 05:28:39 51°15.051 2°53.853 302.9 11.8 306 12.5
2008-03-14 05:28:44 51°15.06 2°53.832 303 11.8 306 13
2008-03-14 05:28:49 51°15.07 2°53.811 303 11.9 306 12.6
2008-03-14 05:28:54 51°15.08 2°53.79 302.6 11.9 307 12.2
2008-03-14 05:28:59 51°15.09 2°53.769 303.3 11.9 307 12.3
2008-03-14 05:29:04 51°15.1 2°53.748 303.6 11.9 307 12.5
2008-03-14 05:29:09 51°15.11 2°53.727 303.7 11.8 307 12.6
2008-03-14 05:29:14 51°15.12 2°53.706 303.6 11.9 307 12.5
2008-03-14 05:29:19 51°15.129 2°53.685 303.3 11.8 307 12.4
2008-03-14 05:29:24 51°15.139 2°53.665 303.5 11.8 305 12.6
2008-03-14 05:29:29 51°15.148 2°53.643 302.6 11.8 300 12.5
2008-03-14 05:29:34 51°15.156 2°53.62 299.2 11.7 300 12.5
2008-03-14 05:29:39 51°15.164 2°53.598 298 11.8 302 12.6
2008-03-14 05:29:44 51°15.172 2°53.575 297.5 11.7 299 12.6
2008-03-14 05:29:50 51°15.182 2°53.548 296.6 11.8 300 12.6
2008-03-14 05:29:54 51°15.188 2°53.53 295.9 11.8 299 12.7
2008-03-14 05:29:59 51°15.196 2°53.507 295.6 11.8 299 12.7
2008-03-14 05:30:04 51°15.204 2°53.484 295.6 11.7 299 12.7
2008-03-14 05:30:09 51°15.211 2°53.462 296.2 11.6 296 12.7
2008-03-14 05:30:14 51°15.217 2°53.438 294.8 11.5 290 12.8
2008-03-14 05:30:19 51°15.222 2°53.414 289.5 11.5 290 12.8
2008-03-14 05:30:24 51°15.228 2°53.39 286.4 11.5 292 13
2008-03-14 05:30:29 51°15.234 2°53.366 288 11.5 288 12.9
2008-03-14 05:30:34 51°15.238 2°53.342 286.6 11.6 288 12.9
2008-03-14 05:30:39 51°15.244 2°53.318 285.9 11.6 289 12.9
2008-03-14 05:30:44 51°15.249 2°53.294 285.6 11.5 288 13.2
2008-03-14 05:30:49 51°15.253 2°53.269 285.4 11.5 285 13.1
2008-03-14 05:30:54 51°15.257 2°53.244 283.7 11.6 285 13
2008-03-14 05:30:59 51°15.262 2°53.22 282.4 11.5 285 13
2008-03-14 05:31:04 51°15.265 2°53.195 282.1 11.5 284 13.1
2008-03-14 05:31:09 51°15.27 2°53.17 280.9 11.5 285 13.2
2008-03-14 05:31:14 51°15.273 2°53.146 281.1 11.5 284 13.1
2008-03-14 05:31:19 51°15.277 2°53.121 281.3 11.6 284 13.2
2008-03-14 05:31:24 51°15.281 2°53.096 281.1 11.6 285 13.3
2008-03-14 05:31:29 51°15.285 2°53.071 281.2 11.6 285 13.4
2008-03-14 05:31:34 51°15.289 2°53.046 281.5 11.6 284 13.6
2008-03-14 05:31:39 51°15.293 2°53.021 281.6 11.6 284 13.5
2008-03-14 05:31:44 51°15.297 2°52.997 281.4 11.5 284 13.2
2008-03-14 05:31:49 51°15.301 2°52.972 281.1 11.5 285 13.4
2008-03-14 05:31:54 51°15.305 2°52.947 281.6 11.5 283 13.2
2008-03-14 05:31:59 51°15.309 2°52.922 281.4 11.6 285 13.3
2008-03-14 05:32:04 51°15.313 2°52.898 281 11.6 284 13.4
2008-03-14 05:32:09 51°15.317 2°52.873 281 11.5 284 13.3
2008-03-14 05:32:14 51°15.321 2°52.848 281.2 11.5 284 13.4
2008-03-14 05:32:19 51°15.324 2°52.823 281.2 11.5 284 13.4
2008-03-14 05:32:24 51°15.328 2°52.799 281.3 11.5 284 13.5
2008-03-14 05:32:29 51°15.333 2°52.774 281.5 11.5 285 13.5
2008-03-14 05:32:34 51°15.337 2°52.75 281.5 11.4 286 13.6
2008-03-14 05:32:39 51°15.341 2°52.725 282.2 11.5 284 13.7
2008-03-14 05:32:44 51°15.345 2°52.701 281.5 11.4 284 13.6
2008-03-14 05:32:49 51°15.349 2°52.676 281.5 11.4 284 13.7
2008-03-14 05:32:54 51°15.353 2°52.652 281.7 11.5 284 13.7
2008-03-14 05:32:59 51°15.356 2°52.627 281.4 11.5 284 13.8
2008-03-14 05:33:04 51°15.36 2°52.602 281.4 11.5 285 13.7
2008-03-14 05:33:09 51°15.363 2°52.578 281.5 11.5 281 13.8
2008-03-14 05:33:14 51°15.367 2°52.553 279.6 11.5 283 13.8
2008-03-14 05:33:19 51°15.369 2°52.528 279.1 11.4 280 14
2008-03-14 05:33:24 51°15.372 2°52.503 277.9 11.4 281 13.9
2008-03-14 05:33:29 51°15.375 2°52.478 277.4 11.5 278 14
2008-03-14 05:33:34 51°15.377 2°52.453 277.1 11.5 280 14.1
2008-03-14 05:33:39 51°15.38 2°52.428 276.8 11.5 280 14.1
2008-03-14 05:33:44 51°15.384 2°52.403 277.2 11.5 282 14.2
2008-03-14 05:33:49 51°15.386 2°52.378 278.2 11.5 280 14
2008-03-14 05:33:54 51°15.389 2°52.353 277.9 11.5 280 14.2
2008-03-14 05:33:59 51°15.392 2°52.328 277.9 11.5 280 14.2
2008-03-14 05:34:04 51°15.394 2°52.303 277.8 11.4 278 14.2
2008-03-14 05:34:09 51°15.397 2°52.278 276.4 11.4 279 14.3
2008-03-14 05:34:14 51°15.399 2°52.253 276.2 11.4 278 14.3
2008-03-14 05:34:19 51°15.402 2°52.228 275.7 11.5 279 14.4
2008-03-14 05:34:24 51°15.404 2°52.203 275.7 11.5 279 14.4
2008-03-14 05:34:29 51°15.407 2°52.178 275.9 11.5 280 14.5
2008-03-14 05:34:34 51°15.409 2°52.153 276.4 11.5 279 14.4
2008-03-14 05:34:39 51°15.412 2°52.128 276.4 11.5 280 14.5
2008-03-14 05:34:44 51°15.414 2°52.103 276.6 11.4 278 14.6
2008-03-14 05:34:49 51°15.417 2°52.079 276.3 11.4 278 14.5
2008-03-14 05:34:54 51°15.419 2°52.054 275.9 11.3 279 14.5
2008-03-14 05:34:59 51°15.421 2°52.029 276.2 11.3 279 14.6
2008-03-14 05:35:04 51°15.424 2°52.004 275.9 11.4 279 14.6
2008-03-14 05:35:09 51°15.426 2°51.98 275.9 11.4 279 14.6
2008-03-14 05:35:14 51°15.429 2°51.955 276.2 11.4 279 14.7
2008-03-14 05:35:19 51°15.432 2°51.93 276.2 11.4 280 14.7
2008-03-14 05:35:24 51°15.434 2°51.905 276.5 11.4 279 14.7
2008-03-14 05:35:29 51°15.437 2°51.88 276.4 11.4 279 14.8
2008-03-14 05:35:34 51°15.439 2°51.855 275.8 11.4 280 14.7
2008-03-14 05:35:39 51°15.441 2°51.83 275.9 11.4 279 14.7
2008-03-14 05:35:44 51°15.444 2°51.805 275.7 11.3 277 14.9
2008-03-14 05:35:49 51°15.446 2°51.781 276 11.3 277 14.7
2008-03-14 05:35:54 51°15.446 2°51.756 274.9 11.2 271 14.9
2008-03-14 05:35:59 51°15.446 2°51.731 270.7 11.2 271 14.8
2008-03-14 05:36:04 51°15.446 2°51.707 268.6 11.2 269 14.9
2008-03-14 05:36:09 51°15.445 2°51.682 267.7 11.2 266 14.9
2008-03-14 05:36:14 51°15.445 2°51.657 265.9 11.2 269 15
2008-03-14 05:36:19 51°15.443 2°51.633 265.5 11.2 266 15
2008-03-14 05:36:24 51°15.443 2°51.608 264.8 11.2 267 14.9
2008-03-14 05:36:29 51°15.442 2°51.583 264.8 11.2 267 15.1
2008-03-14 05:36:34 51°15.441 2°51.558 265.3 11.2 267 15
2008-03-14 05:36:39 51°15.441 2°51.534 265.2 11.2 268 15
2008-03-14 05:36:44 51°15.44 2°51.509 265.5 11.2 268 15
2008-03-14 05:36:49 51°15.44 2°51.484 265.7 11.2 267 15.1
2008-03-14 05:36:54 51°15.439 2°51.459 265.4 11.2 268 15.2
2008-03-14 05:36:59 51°15.438 2°51.435 265.5 11.2 268 15
2008-03-14 05:37:04 51°15.438 2°51.41 265.8 11.2 268 15.1
2008-03-14 05:37:09 51°15.437 2°51.385 265.6 11.2 269 15.1
2008-03-14 05:37:14 51°15.437 2°51.36 265.9 11.2 267 15.1
2008-03-14 05:37:19 51°15.436 2°51.336 265.6 11.2 267 15.1
2008-03-14 05:37:24 51°15.435 2°51.311 265.2 11.2 267 15.2
2008-03-14 05:37:29 51°15.434 2°51.286 265.3 11.2 267 15.2
2008-03-14 05:37:34 51°15.432 2°51.262 264.7 11.1 264 15.1
2008-03-14 05:37:39 51°15.431 2°51.237 263.4 11.2 265 15.3
2008-03-14 05:37:44 51°15.429 2°51.213 263.2 11.1 263 15.2
2008-03-14 05:37:49 51°15.428 2°51.188 262.3 11 265 15.3
2008-03-14 05:37:54 51°15.426 2°51.164 262 11.1 264 15.2
2008-03-14 05:37:59 51°15.425 2°51.14 262.5 11.1 264 15.3
2008-03-14 05:38:04 51°15.423 2°51.115 262.8 11.1 263 15.2
2008-03-14 05:38:09 51°15.421 2°51.091 262.4 11.1 264 15.2
2008-03-14 05:38:14 51°15.42 2°51.066 262.6 11.1 265 15.3
2008-03-14 05:38:19 51°15.419 2°51.042 262.7 11.1 265 15.3
2008-03-14 05:38:24 51°15.417 2°51.017 262.8 11.1 265 15.2
2008-03-14 05:38:29 51°15.416 2°50.993 262.9 11.2 264 15.2
2008-03-14 05:38:34 51°15.414 2°50.968 262.8 11.1 264 15.4
2008-03-14 05:38:39 51°15.413 2°50.944 262.8 11.1 265 15.4
2008-03-14 05:38:44 51°15.411 2°50.92 263 11.1 264 15.3
2008-03-14 05:38:49 51°15.41 2°50.895 262.9 11.1 265 15.3
2008-03-14 05:38:54 51°15.409 2°50.871 263.1 11.2 265 15.4
2008-03-14 05:38:59 51°15.407 2°50.846 263.2 11.2 264 15.2
2008-03-14 05:39:04 51°15.406 2°50.822 263 11.2 266 15.4
2008-03-14 05:39:10 51°15.404 2°50.793 263.4 11.2 263 15.3
2008-03-14 05:39:14 51°15.403 2°50.773 262.8 11.1 265 15.4
2008-03-14 05:39:19 51°15.401 2°50.748 262.5 11.2 263 15.5
2008-03-14 05:39:24 51°15.4 2°50.724 262.4 11.1 265 15.4
2008-03-14 05:39:29 51°15.398 2°50.699 262.6 11.2 264 15.3
2008-03-14 05:39:34 51°15.396 2°50.675 262.3 11.2 264 15.4
2008-03-14 05:39:39 51°15.395 2°50.65 262.6 11.1 265 15.3
2008-03-14 05:39:44 51°15.394 2°50.626 262.8 11.1 265 15.5
2008-03-14 05:39:49 51°15.392 2°50.602 263.3 11.1 265 15.4
2008-03-14 05:39:54 51°15.391 2°50.577 263 11.1 264 15.6
2008-03-14 05:39:59 51°15.389 2°50.553 262.9 11.1 265 15.5
2008-03-14 05:40:04 51°15.388 2°50.529 263.4 11.1 263 15.5
2008-03-14 05:40:09 51°15.387 2°50.504 262.6 11.1 266 15.4
2008-03-14 05:40:14 51°15.385 2°50.48 263.1 11.1 263 15.4
2008-03-14 05:40:19 51°15.384 2°50.455 263 11.2 266 15.4
2008-03-14 05:40:24 51°15.382 2°50.431 263 11.2 263 15.4
2008-03-14 05:40:29 51°15.381 2°50.406 262.8 11.2 265 15.5
2008-03-14 05:40:34 51°15.378 2°50.382 262.9 11.2 260 15.5
2008-03-14 05:40:39 51°15.376 2°50.357 261.2 11.2 264 15.5
2008-03-14 05:40:44 51°15.374 2°50.332 261.2 11.2 261 15.5
2008-03-14 05:40:49 51°15.372 2°50.308 261 11.3 263 15.5
2008-03-14 05:40:54 51°15.37 2°50.283 260.6 11.2 262 15.4
2008-03-14 05:40:59 51°15.368 2°50.259 261.1 11.2 262 15.5
2008-03-14 05:41:04 51°15.365 2°50.234 260.5 11.2 262 15.4
2008-03-14 05:41:09 51°15.363 2°50.21 260.7 11.2 263 15.4
2008-03-14 05:41:14 51°15.361 2°50.185 260.7 11.2 262 15.6
2008-03-14 05:41:19 51°15.359 2°50.16 261.2 11.2 262 15.5
2008-03-14 05:41:24 51°15.357 2°50.136 260.6 11.3 263 15.5
2008-03-14 05:41:29 51°15.355 2°50.111 260.9 11.2 263 15.4
2008-03-14 05:41:34 51°15.353 2°50.086 261.3 11.2 262 15.4
2008-03-14 05:41:39 51°15.351 2°50.061 261.4 11.4 263 15.5
2008-03-14 05:41:44 51°15.35 2°50.037 261.2 11.3 264 15.4
2008-03-14 05:41:49 51°15.347 2°50.012 261.8 11.3 262 15.5
2008-03-14 05:41:54 51°15.346 2°49.987 261.1 11.3 264 15.6
2008-03-14 05:41:59 51°15.343 2°49.963 261.4 11.3 261 15.6
2008-03-14 05:42:04 51°15.341 2°49.938 260.5 11.3 263 15.6
2008-03-14 05:42:09 51°15.339 2°49.913 260.5 11.3 261 15.6
2008-03-14 05:42:14 51°15.336 2°49.889 260.7 11.3 261 15.6
2008-03-14 05:42:19 51°15.335 2°49.864 260.5 11.2 262 15.6
2008-03-14 05:42:24 51°15.332 2°49.84 260.7 11.3 261 15.5
2008-03-14 05:42:29 51°15.33 2°49.815 260.6 11.3 264 15.8
2008-03-14 05:42:34 51°15.328 2°49.79 261.5 11.3 262 15.8
2008-03-14 05:42:39 51°15.326 2°49.765 261.1 11.4 263 15.6
2008-03-14 05:42:44 51°15.324 2°49.74 261.2 11.4 263 15.7
2008-03-14 05:42:49 51°15.322 2°49.716 261.5 11.3 262 15.8
2008-03-14 05:42:54 51°15.32 2°49.691 260.9 11.3 264 15.3
2008-03-14 05:42:59 51°15.318 2°49.666 261.5 11.4 260 15.7
2008-03-14 05:43:04 51°15.316 2°49.641 261 11.4 264 15.4
2008-03-14 05:43:09 51°15.314 2°49.616 261.1 11.4 262 15.6
2008-03-14 05:43:14 51°15.312 2°49.591 261.1 11.3 264 15.7
2008-03-14 05:43:19 51°15.309 2°49.567 261.5 11.3 261 15.5
2008-03-14 05:43:24 51°15.308 2°49.542 261.2 11.3 263 15.4
2008-03-14 05:43:30 51°15.305 2°49.512 261.2 11.3 262 15.6
2008-03-14 05:43:34 51°15.303 2°49.492 261.1 11.4 262 15.6
2008-03-14 05:43:39 51°15.301 2°49.467 261 11.3 262 15.5
2008-03-14 05:43:44 51°15.299 2°49.443 261 11.3 263 15.6
2008-03-14 05:43:49 51°15.297 2°49.418 261.4 11.3 263 15.6
2008-03-14 05:43:54 51°15.295 2°49.393 261.8 11.4 262 15.6
2008-03-14 05:43:59 51°15.294 2°49.368 261.4 11.4 264 15.6
2008-03-14 05:44:04 51°15.292 2°49.343 261.9 11.4 262 15.6
2008-03-14 05:44:09 51°15.29 2°49.318 261.7 11.4 263 15.6
2008-03-14 05:44:14 51°15.288 2°49.293 261.3 11.4 263 15.5
2008-03-14 05:44:19 51°15.286 2°49.268 261.2 11.3 262 15.5
2008-03-14 05:44:24 51°15.284 2°49.243 261.2 11.3 263 15.6
2008-03-14 05:44:29 51°15.282 2°49.219 261.3 11.3 262 15.5
2008-03-14 05:44:34 51°15.279 2°49.194 260.5 11.3 261 15.5
2008-03-14 05:44:39 51°15.277 2°49.169 259.8 11.3 262 15.5
2008-03-14 05:44:44 51°15.275 2°49.144 260.2 11.3 261 15.6
2008-03-14 05:44:49 51°15.272 2°49.12 260.1 11.4 262 15.6
2008-03-14 05:44:54 51°15.27 2°49.095 260.3 11.4 262 15.7
2008-03-14 05:44:59 51°15.268 2°49.07 260.5 11.3 262 15.5
2008-03-14 05:45:04 51°15.266 2°49.045 260.6 11.3 261 15.6
2008-03-14 05:45:09 51°15.263 2°49.021 260.3 11.3 261 15.8
2008-03-14 05:45:14 51°15.261 2°48.996 260 11.3 261 15.7
2008-03-14 05:45:19 51°15.259 2°48.972 259.8 11.2 262 15.5
2008-03-14 05:45:24 51°15.256 2°48.947 260 11.2 261 15.8
2008-03-14 05:45:29 51°15.254 2°48.922 259.8 11.2 262 15.6
2008-03-14 05:45:34 51°15.252 2°48.898 260.1 11.1 261 15.5
2008-03-14 05:45:39 51°15.249 2°48.873 259.7 11.2 261 15.8
2008-03-14 05:45:44 51°15.247 2°48.849 259.7 11.2 261 15.7
2008-03-14 05:45:50 51°15.245 2°48.819 260 11.2 261 15.6
2008-03-14 05:45:54 51°15.243 2°48.8 260 11.3 261 15.6
2008-03-14 05:45:59 51°15.24 2°48.775 259.6 11.2 262 15.7
2008-03-14 05:46:04 51°15.238 2°48.75 260.2 11.2 263 15.7
2008-03-14 05:46:09 51°15.236 2°48.726 260.7 11.2 261 15.8
2008-03-14 05:46:14 51°15.234 2°48.702 260.2 11.2 262 15.7
2008-03-14 05:46:19 51°15.231 2°48.677 260.1 11.2 261 15.8
2008-03-14 05:46:24 51°15.229 2°48.652 260.2 11.2 262 15.7
2008-03-14 05:46:29 51°15.227 2°48.628 260.4 11.2 261 15.7
2008-03-14 05:46:34 51°15.225 2°48.603 260.1 11.2 263 15.7
2008-03-14 05:46:39 51°15.222 2°48.578 260.3 11.3 261 15.7
2008-03-14 05:46:44 51°15.22 2°48.554 259.7 11.3 262 15.7
2008-03-14 05:46:49 51°15.218 2°48.529 260.2 11.3 260 15.6
2008-03-14 05:46:54 51°15.215 2°48.505 259.7 11.3 262 15.7
2008-03-14 05:46:59 51°15.213 2°48.48 259.9 11.3 261 15.6
2008-03-14 05:47:04 51°15.211 2°48.455 260.2 11.3 263 15.7
2008-03-14 05:47:09 51°15.209 2°48.431 260.8 11.2 261 15.7
2008-03-14 05:47:14 51°15.207 2°48.406 260.3 11.3 262 15.6
2008-03-14 05:47:19 51°15.204 2°48.381 260.3 11.3 261 15.6
2008-03-14 05:47:24 51°15.202 2°48.356 260.2 11.2 262 15.6
2008-03-14 05:47:29 51°15.199 2°48.332 260.5 11.2 262 15.5
2008-03-14 05:47:34 51°15.198 2°48.307 260.2 11.3 263 15.4
2008-03-14 05:47:39 51°15.196 2°48.282 260.7 11.3 262 15.3
2008-03-14 05:47:44 51°15.193 2°48.258 260.7 11.2 262 15.2
2008-03-14 05:47:50 51°15.191 2°48.228 260.1 11.2 262 15.2
2008-03-14 05:47:54 51°15.189 2°48.208 260.1 11.3 262 15.1
2008-03-14 05:47:59 51°15.187 2°48.183 260.2 11.3 262 15
2008-03-14 05:48:04 51°15.185 2°48.159 260.3 11.3 262 14.8
2008-03-14 05:48:09 51°15.182 2°48.134 260.1 11.2 261 14.7
2008-03-14 05:48:14 51°15.18 2°48.11 259.7 11.2 261 14.8
2008-03-14 05:48:19 51°15.178 2°48.085 259.6 11.3 262 14.6
2008-03-14 05:48:24 51°15.175 2°48.06 259.8 11.2 263 14.4
2008-03-14 05:48:29 51°15.173 2°48.035 260.3 11.3 261 14.1
2008-03-14 05:48:34 51°15.171 2°48.011 260.5 11.3 262 14
2008-03-14 05:48:39 51°15.169 2°47.986 260.2 11.3 262 14.3
2008-03-14 05:48:44 51°15.167 2°47.961 260.1 11.3 262 14.1
2008-03-14 05:48:49 51°15.164 2°47.937 260.3 11.3 261 13.8
2008-03-14 05:48:54 51°15.162 2°47.912 259.8 11.3 261 13.7
2008-03-14 05:48:59 51°15.16 2°47.887 259.6 11.3 262 13.5
2008-03-14 05:49:04 51°15.157 2°47.862 260.2 11.3 261 13.5
2008-03-14 05:49:09 51°15.155 2°47.837 260.3 11.3 263 13.2
2008-03-14 05:49:14 51°15.153 2°47.813 260.4 11.3 262 13.4
2008-03-14 05:49:19 51°15.151 2°47.788 260.5 11.3 262 12.8
2008-03-14 05:49:24 51°15.149 2°47.763 260.7 11.3 262 12.9
2008-03-14 05:49:29 51°15.146 2°47.738 260.5 11.3 262 12.9
2008-03-14 05:49:34 51°15.144 2°47.714 259.8 11.4 263 13
2008-03-14 05:49:39 51°15.142 2°47.689 260.5 11.3 262 12.9
2008-03-14 05:49:44 51°15.14 2°47.664 260.5 11.4 261 12.4
2008-03-14 05:49:49 51°15.138 2°47.639 260.5 11.4 262 12.6
2008-03-14 05:49:54 51°15.135 2°47.614 260.4 11.3 261 12.6
2008-03-14 05:49:59 51°15.134 2°47.589 260.2 11.4 263 12.6
2008-03-14 05:50:04 51°15.131 2°47.564 260.3 11.3 261 12.4
2008-03-14 05:50:09 51°15.129 2°47.54 259.7 11.3 262 12.3
2008-03-14 05:50:14 51°15.126 2°47.515 259.7 11.3 261 12.3
2008-03-14 05:50:19 51°15.124 2°47.49 259.5 11.3 262 12.3
2008-03-14 05:50:24 51°15.122 2°47.465 260 11.3 262 12.1
2008-03-14 05:50:29 51°15.119 2°47.44 259.8 11.3 262 11.9
2008-03-14 05:50:34 51°15.117 2°47.415 259.7 11.3 263 12
2008-03-14 05:50:39 51°15.115 2°47.39 260.4 11.3 260 12.1
2008-03-14 05:50:44 51°15.113 2°47.366 259.6 11.4 264 12.2
2008-03-14 05:50:49 51°15.11 2°47.341 260.3 11.4 261 11.9
2008-03-14 05:50:54 51°15.108 2°47.317 260.4 11.4 264 12
2008-03-14 05:50:59 51°15.106 2°47.292 261 11.4 261 12.1
2008-03-14 05:51:04 51°15.104 2°47.267 260.7 11.4 263 11.9
2008-03-14 05:51:09 51°15.102 2°47.243 260.6 11.4 262 12.1
2008-03-14 05:51:14 51°15.1 2°47.218 260.6 11.5 262 11.9
2008-03-14 05:51:19 51°15.097 2°47.193 260.3 11.4 262 11.8
2008-03-14 05:51:24 51°15.095 2°47.168 260.5 11.4 261 12
2008-03-14 05:51:29 51°15.093 2°47.143 260.2 11.4 262 12
2008-03-14 05:51:34 51°15.091 2°47.118 260 11.4 262 11.9
2008-03-14 05:51:39 51°15.089 2°47.092 260.1 11.4 263 12.1
2008-03-14 05:51:44 51°15.086 2°47.067 260.5 11.4 261 11.9
2008-03-14 05:51:49 51°15.084 2°47.042 260.2 11.4 262 12.1
2008-03-14 05:51:54 51°15.081 2°47.017 259.9 11.4 261 12.1
2008-03-14 05:51:59 51°15.079 2°46.992 260.1 11.4 262 11.9
2008-03-14 05:52:04 51°15.077 2°46.968 260.1 11.5 263 12.2
2008-03-14 05:52:09 51°15.075 2°46.943 260.5 11.4 263 12.1
2008-03-14 05:52:14 51°15.073 2°46.918 260.8 11.4 262 12.1
2008-03-14 05:52:19 51°15.07 2°46.893 260.5 11.5 262 12.2
2008-03-14 05:52:24 51°15.068 2°46.868 260.5 11.4 262 12.1
2008-03-14 05:52:29 51°15.066 2°46.844 260.7 11.5 262 12.1
2008-03-14 05:52:34 51°15.064 2°46.818 260.3 11.5 264 12.2
2008-03-14 05:52:39 51°15.062 2°46.793 261.5 11.4 261 12.2
2008-03-14 05:52:44 51°15.06 2°46.768 260.3 11.5 264 12.4
2008-03-14 05:52:50 51°15.057 2°46.738 260.7 11.5 262 12.3
2008-03-14 05:52:54 51°15.056 2°46.718 260.9 11.5 262 12.4
2008-03-14 05:52:59 51°15.054 2°46.693 260.3 11.5 263 12.3
2008-03-14 05:53:04 51°15.051 2°46.668 260.9 11.5 261 12.5
2008-03-14 05:53:09 51°15.049 2°46.642 260.4 11.4 262 12.6
2008-03-14 05:53:14 51°15.047 2°46.617 260.3 11.5 262 12.6
2008-03-14 05:53:19 51°15.045 2°46.592 260.3 11.5 262 12.4
2008-03-14 05:53:24 51°15.043 2°46.566 260.5 11.5 262 12.6
2008-03-14 05:53:29 51°15.041 2°46.541 260.3 11.5 262 12.6
2008-03-14 05:53:34 51°15.039 2°46.515 260.3 11.5 263 12.8
2008-03-14 05:53:39 51°15.037 2°46.49 260.7 11.4 263 12.8
2008-03-14 05:53:44 51°15.034 2°46.465 260.9 11.5 263 12.9
2008-03-14 05:53:49 51°15.033 2°46.44 260.5 11.4 263 13.1
2008-03-14 05:53:54 51°15.03 2°46.415 260.8 11.4 261 13
2008-03-14 05:53:59 51°15.028 2°46.39 259.7 11.5 263 13.1
2008-03-14 05:54:04 51°15.026 2°46.365 260 11.3 262 13.3
2008-03-14 05:54:09 51°15.024 2°46.34 260.5 11.4 261 13.3
2008-03-14 05:54:14 51°15.021 2°46.316 259.8 11.4 262 13.4
2008-03-14 05:54:19 51°15.02 2°46.291 259.8 11.4 263 13.4
2008-03-14 05:54:24 51°15.017 2°46.266 260.2 11.4 263 13.4
2008-03-14 05:54:29 51°15.015 2°46.241 260.5 11.3 263 13.6
2008-03-14 05:54:34 51°15.013 2°46.216 260.7 11.3 262 13.6
2008-03-14 05:54:39 51°15.011 2°46.191 260.4 11.3 263 13.8
2008-03-14 05:54:44 51°15.009 2°46.167 260.6 11.3 261 13.9
2008-03-14 05:54:49 51°15.007 2°46.142 260.2 11.3 261 13.8
2008-03-14 05:54:54 51°15.004 2°46.117 259.6 11.3 262 14
2008-03-14 05:54:59 51°15.002 2°46.093 260.2 11.3 262 14.1
2008-03-14 05:55:04 51°15 2°46.068 260.5 11.3 263 14.2
2008-03-14 05:55:10 51°14.998 2°46.038 260.3 11.4 262 14.3
2008-03-14 05:55:14 51°14.996 2°46.018 260.2 11.4 263 14.4
2008-03-14 05:55:19 51°14.995 2°45.993 260.8 11.3 263 14.5
2008-03-14 05:55:24 51°14.992 2°45.968 261 11.3 262 14.5
2008-03-14 05:55:29 51°14.99 2°45.944 260.5 11.2 262 14.6
2008-03-14 05:55:34 51°14.988 2°45.919 260 11.3 262 14.6
2008-03-14 05:55:39 51°14.986 2°45.894 260.1 11.3 261 14.7
2008-03-14 05:55:44 51°14.984 2°45.87 259.7 11.1 263 14.6
2008-03-14 05:55:49 51°14.982 2°45.846 260.1 11.2 261 14.9
2008-03-14 05:55:54 51°14.98 2°45.821 259.8 11.2 263 15
2008-03-14 05:55:59 51°14.978 2°45.797 260.5 11.2 263 15.1
2008-03-14 05:56:04 51°14.976 2°45.772 260.3 11.1 264 15.2
2008-03-14 05:56:09 51°14.974 2°45.748 260.5 11.1 262 15.4
2008-03-14 05:56:14 51°14.972 2°45.724 260.5 11.1 262 15.4
2008-03-14 05:56:19 51°14.97 2°45.699 259.9 11.2 262 15.6
2008-03-14 05:56:24 51°14.967 2°45.675 259.8 11.2 262 15.6
2008-03-14 05:56:29 51°14.965 2°45.65 259.5 11.1 262 15.9
2008-03-14 05:56:34 51°14.963 2°45.626 259.9 11.2 262 16
2008-03-14 05:56:39 51°14.961 2°45.601 260 11.2 263 16.1
2008-03-14 05:56:44 51°14.959 2°45.577 260.4 11.2 263 16.1
2008-03-14 05:56:49 51°14.958 2°45.552 260.6 11.2 263 16.3
2008-03-14 05:56:54 51°14.956 2°45.527 260.7 11.3 263 16.3
2008-03-14 05:56:59 51°14.954 2°45.503 260.6 11.2 264 16.4
2008-03-14 05:57:04 51°14.952 2°45.478 260.8 11.2 264 16.4
2008-03-14 05:57:10 51°14.95 2°45.449 260.9 11.2 263 16.5
2008-03-14 05:57:14 51°14.948 2°45.429 260.6 11.2 263 16.5
2008-03-14 05:57:19 51°14.947 2°45.404 260.3 11.2 264 16.7
2008-03-14 05:57:24 51°14.945 2°45.38 260.5 11.2 262 16.7
2008-03-14 05:57:29 51°14.943 2°45.355 260.1 11.2 263 16.7
2008-03-14 05:57:34 51°14.941 2°45.331 260.3 11.2 262 16.9
2008-03-14 05:57:39 51°14.939 2°45.306 260.4 11.2 263 16.9
2008-03-14 05:57:44 51°14.936 2°45.282 260 11.2 259 17.1
2008-03-14 05:57:49 51°14.934 2°45.257 258.3 11.1 262 17.1
2008-03-14 05:57:54 51°14.931 2°45.233 258.4 11.1 259 17.3
2008-03-14 05:57:59 51°14.928 2°45.209 257.5 11.2 260 17.2
2008-03-14 05:58:04 51°14.925 2°45.185 257.3 11.1 259 17.1
2008-03-14 05:58:09 51°14.922 2°45.161 257 11.1 258 17.2
2008-03-14 05:58:14 51°14.919 2°45.137 255.9 11.1 262 17.3
2008-03-14 05:58:19 51°14.916 2°45.113 257.2 11 257 17.4
2008-03-14 05:58:24 51°14.913 2°45.089 256.8 11.1 260 17.4
2008-03-14 05:58:29 51°14.911 2°45.064 256.5 11.1 260 17.5
2008-03-14 05:58:34 51°14.908 2°45.04 256.8 11 259 17.3
2008-03-14 05:58:39 51°14.905 2°45.017 256.7 11 259 17.7
2008-03-14 05:58:44 51°14.902 2°44.992 256.8 11.1 260 17.7
2008-03-14 05:58:49 51°14.899 2°44.968 257 11 260 17.7
2008-03-14 05:58:54 51°14.896 2°44.944 257.1 11.1 259 17.8
2008-03-14 05:58:59 51°14.894 2°44.92 256.9 11.1 261 18
2008-03-14 05:59:04 51°14.891 2°44.896 257.6 11.1 259 17.9
2008-03-14 05:59:09 51°14.888 2°44.872 257 11.1 261 17.9
2008-03-14 05:59:14 51°14.885 2°44.848 256.9 11.2 259 18.1
2008-03-14 05:59:19 51°14.883 2°44.823 257.2 11.2 261 18.1
2008-03-14 05:59:24 51°14.88 2°44.799 257.5 11.1 258 18.1
2008-03-14 05:59:30 51°14.876 2°44.77 257 11.2 259 18.1
2008-03-14 05:59:34 51°14.874 2°44.751 257 11.1 260 18.3
2008-03-14 05:59:39 51°14.871 2°44.726 257.5 11.2 259 18.4
2008-03-14 05:59:44 51°14.869 2°44.702 256.8 11.1 261 18.1
2008-03-14 05:59:49 51°14.866 2°44.678 257.6 11.1 259 18.4
2008-03-14 05:59:54 51°14.863 2°44.654 257.6 11.1 259 18.4
2008-03-14 05:59:59 51°14.86 2°44.63 257.2 11.1 260 18.3
2008-03-14 06:00:04 51°14.857 2°44.605 257.2 11.2 260 18.4
2008-03-14 06:00:09 51°14.854 2°44.581 257.1 11.2 259 18.4
2008-03-14 06:00:14 51°14.852 2°44.557 257 11.2 259 18.5
2008-03-14 06:00:19 51°14.849 2°44.532 257 11.2 259 18.5
2008-03-14 06:00:24 51°14.846 2°44.508 257.1 11.2 259 18.7
2008-03-14 06:00:29 51°14.843 2°44.484 257.4 11.1 258 18.6
2008-03-14 06:00:34 51°14.84 2°44.46 256.8 11.1 260 18.8
2008-03-14 06:00:39 51°14.837 2°44.436 257.6 11 259 18.9
2008-03-14 06:00:44 51°14.835 2°44.412 257.3 11.2 260 19
2008-03-14 06:00:49 51°14.832 2°44.387 257.4 11.1 260 18.7
2008-03-14 06:00:54 51°14.829 2°44.363 257.6 11.1 260 18.8
2008-03-14 06:00:59 51°14.826 2°44.339 257.4 11.2 260 18.9
2008-03-14 06:01:04 51°14.824 2°44.315 257.4 11.2 260 18.8
2008-03-14 06:01:09 51°14.821 2°44.291 257.5 11.1 259 18.9
2008-03-14 06:01:14 51°14.818 2°44.267 257.1 11.1 259 19
2008-03-14 06:01:19 51°14.815 2°44.242 256.7 11.2 260 19.1
2008-03-14 06:01:24 51°14.812 2°44.218 257.3 11.3 259 19
2008-03-14 06:01:30 51°14.809 2°44.189 257 11.1 260 18.8
2008-03-14 06:01:34 51°14.806 2°44.17 257.1 11.2 258 18.9
2008-03-14 06:01:39 51°14.804 2°44.145 256.7 11.1 260 19
2008-03-14 06:01:44 51°14.801 2°44.121 257.5 11.1 259 19.1
2008-03-14 06:01:50 51°14.798 2°44.092 257.1 11.3 261 19
2008-03-14 06:01:54 51°14.795 2°44.072 257.6 11.2 259 19
2008-03-14 06:01:59 51°14.793 2°44.048 257.3 11.3 260 19
2008-03-14 06:02:04 51°14.79 2°44.023 257.2 11.2 260 19.1
2008-03-14 06:02:09 51°14.787 2°43.999 257.6 11.2 260 19
2008-03-14 06:02:14 51°14.784 2°43.975 257.1 11.1 259 19.2
2008-03-14 06:02:19 51°14.781 2°43.95 256.7 11.2 260 19.3
2008-03-14 06:02:24 51°14.778 2°43.926 256.8 11.2 258 19.1
2008-03-14 06:02:29 51°14.775 2°43.902 256.5 11.2 260 19.3
2008-03-14 06:02:34 51°14.772 2°43.877 256.7 11.2 260 19.3
2008-03-14 06:02:39 51°14.77 2°43.853 256.8 11.2 261 19.6
2008-03-14 06:02:44 51°14.767 2°43.829 257.8 11.2 259 19.5
2008-03-14 06:02:49 51°14.764 2°43.804 257.1 11.3 262 19.5
2008-03-14 06:02:54 51°14.762 2°43.78 257.6 11.2 260 19.5
2008-03-14 06:02:59 51°14.759 2°43.755 257.2 11.3 260 19.5
2008-03-14 06:03:04 51°14.756 2°43.731 256.9 11.2 259 19.9
2008-03-14 06:03:09 51°14.753 2°43.706 257 11.3 261 19.9
2008-03-14 06:03:14 51°14.751 2°43.682 257.1 11.2 260 19.7
2008-03-14 06:03:19 51°14.748 2°43.657 257.5 11.2 259 19.8
2008-03-14 06:03:24 51°14.745 2°43.633 257 11.2 260 20.1
2008-03-14 06:03:29 51°14.742 2°43.609 257.3 11.2 260 20.1
2008-03-14 06:03:34 51°14.74 2°43.584 257.7 11.2 259 20.2
2008-03-14 06:03:39 51°14.737 2°43.56 257.3 11.3 260 20.2
2008-03-14 06:03:44 51°14.734 2°43.536 257.1 11.2 260 20.4
2008-03-14 06:03:50 51°14.731 2°43.506 257.2 11.3 260 20.4
2008-03-14 06:03:54 51°14.729 2°43.487 257.5 11.3 260 20.5
2008-03-14 06:03:59 51°14.726 2°43.462 257.2 11.3 259 20.5
2008-03-14 06:04:04 51°14.723 2°43.437 256.9 11.3 261 20.4
2008-03-14 06:04:09 51°14.72 2°43.413 257.4 11.3 260 20.4
2008-03-14 06:04:14 51°14.718 2°43.388 257.4 11.2 260 20.4
2008-03-14 06:04:19 51°14.715 2°43.364 257.6 11.3 260 20.4
2008-03-14 06:04:24 51°14.712 2°43.34 257.3 11.2 260 20.3
2008-03-14 06:04:29 51°14.709 2°43.315 256.9 11.2 259 20.5
2008-03-14 06:04:34 51°14.707 2°43.291 256.8 11.2 262 20.4
2008-03-14 06:04:39 51°14.704 2°43.267 258.2 11.2 259 20.4
2008-03-14 06:04:44 51°14.701 2°43.242 257.4 11.3 260 20.4
2008-03-14 06:04:49 51°14.699 2°43.218 257.1 11.2 260 20.4
2008-03-14 06:04:54 51°14.696 2°43.193 257.7 11.3 260 20.5
2008-03-14 06:04:59 51°14.694 2°43.169 257.2 11.3 261 20.3
2008-03-14 06:05:04 51°14.692 2°43.144 257.4 11.2 264 20.4
2008-03-14 06:05:09 51°14.69 2°43.12 259.1 11.2 262 20.3
2008-03-14 06:05:14 51°14.688 2°43.095 259.6 11.3 263 20.4
2008-03-14 06:05:19 51°14.686 2°43.07 260.3 11.2 264 20.4
2008-03-14 06:05:24 51°14.685 2°43.046 261 11.3 264 20.3
2008-03-14 06:05:29 51°14.683 2°43.021 261.3 11.3 265 20.4
2008-03-14 06:05:34 51°14.682 2°42.996 261.2 11.3 264 20.4
2008-03-14 06:05:39 51°14.681 2°42.971 261.5 11.3 265 20.2
2008-03-14 06:05:44 51°14.679 2°42.947 261.4 11.2 265 20.1
2008-03-14 06:05:50 51°14.677 2°42.917 261.1 11.3 264 20.1
2008-03-14 06:05:54 51°14.676 2°42.897 261.4 11.3 265 20.2
2008-03-14 06:05:59 51°14.674 2°42.872 261.4 11.3 264 19.9
2008-03-14 06:06:04 51°14.673 2°42.847 261.2 11.4 265 20
2008-03-14 06:06:09 51°14.671 2°42.822 261.7 11.3 265 19.8
2008-03-14 06:06:14 51°14.67 2°42.797 261.8 11.3 264 19.6
2008-03-14 06:06:19 51°14.668 2°42.772 261.7 11.4 264 19.4
2008-03-14 06:06:24 51°14.667 2°42.747 261.2 11.4 264 19.2
2008-03-14 06:06:29 51°14.665 2°42.722 261.3 11.3 264 19.2
2008-03-14 06:06:34 51°14.664 2°42.698 261.2 11.3 265 19.3
2008-03-14 06:06:39 51°14.662 2°42.672 261.3 11.4 264 19.2
2008-03-14 06:06:44 51°14.661 2°42.647 261.2 11.4 267 19
2008-03-14 06:06:49 51°14.659 2°42.623 262.1 11.3 264 18.9
2008-03-14 06:06:54 51°14.658 2°42.598 261.3 11.3 266 18.9
2008-03-14 06:06:59 51°14.657 2°42.573 261.7 11.3 264 18.7
2008-03-14 06:07:04 51°14.656 2°42.548 261.4 11.2 267 18.7
2008-03-14 06:07:09 51°14.655 2°42.523 261.9 11.3 267 18.8
2008-03-14 06:07:14 51°14.654 2°42.498 262.8 11.3 268 18.6
2008-03-14 06:07:19 51°14.654 2°42.473 263.6 11.2 267 18.3
2008-03-14 06:07:24 51°14.653 2°42.449 263.6 11.2 268 18.5
2008-03-14 06:07:29 51°14.652 2°42.424 264 11.3 267 18.2
2008-03-14 06:07:34 51°14.651 2°42.399 263.4 11.3 267 18.1
2008-03-14 06:07:39 51°14.65 2°42.374 263.5 11.3 265 17.7
2008-03-14 06:07:44 51°14.649 2°42.35 263.1 11.3 268 17.5
2008-03-14 06:07:49 51°14.648 2°42.325 263.5 11.3 266 17.3
2008-03-14 06:07:54 51°14.647 2°42.3 263.6 11.3 266 16
2008-03-14 06:07:59 51°14.646 2°42.275 263.4 11.3 267 16.6
2008-03-14 06:08:04 51°14.645 2°42.25 263.4 11.4 267 16.9
2008-03-14 06:08:09 51°14.645 2°42.225 263.3 11.3 267 16.8
2008-03-14 06:08:14 51°14.644 2°42.2 263.1 11.3 268 16.7
2008-03-14 06:08:19 51°14.645 2°42.175 264.3 11.4 274 16.6
2008-03-14 06:08:24 51°14.646 2°42.15 268.8 11.4 273 16.6
2008-03-14 06:08:29 51°14.647 2°42.124 269.3 11.4 275 16.3
2008-03-14 06:08:34 51°14.648 2°42.099 269.9 11.5 276 16.3
2008-03-14 06:08:39 51°14.651 2°42.074 271.7 11.5 277 16.2
2008-03-14 06:08:44 51°14.652 2°42.049 272.7 11.5 276 16.1
2008-03-14 06:08:49 51°14.654 2°42.024 273.3 11.6 277 16.2
2008-03-14 06:08:54 51°14.656 2°41.998 273.5 11.6 278 16.1
2008-03-14 06:08:59 51°14.659 2°41.973 274.1 11.5 279 16.1
2008-03-14 06:09:04 51°14.661 2°41.948 275 11.5 278 16.2
2008-03-14 06:09:09 51°14.663 2°41.922 274.7 11.6 279 16.1
2008-03-14 06:09:14 51°14.666 2°41.897 274.4 11.5 278 15.9
2008-03-14 06:09:19 51°14.668 2°41.872 274.5 11.6 279 15.9
2008-03-14 06:09:24 51°14.671 2°41.846 275.1 11.6 279 15.9
2008-03-14 06:09:29 51°14.673 2°41.821 275.7 11.6 280 14.8
2008-03-14 06:09:34 51°14.676 2°41.796 276.1 11.6 280 15.5
2008-03-14 06:09:39 51°14.679 2°41.771 276 11.6 280 15.9
2008-03-14 06:09:44 51°14.682 2°41.745 276.1 11.7 280 15.7
2008-03-14 06:09:49 51°14.685 2°41.72 276.3 11.6 279 15.8
2008-03-14 06:09:54 51°14.687 2°41.695 275.6 11.6 280 15.7
2008-03-14 06:09:59 51°14.69 2°41.67 275.5 11.5 278 15.8
2008-03-14 06:10:04 51°14.692 2°41.645 275 11.6 279 16
2008-03-14 06:10:09 51°14.695 2°41.619 275 11.6 279 16.1
2008-03-14 06:10:14 51°14.697 2°41.594 275.2 11.6 278 15.9
2008-03-14 06:10:19 51°14.7 2°41.569 275.1 11.6 280 15.9
2008-03-14 06:10:24 51°14.702 2°41.544 275.7 11.6 278 15.9
2008-03-14 06:10:29 51°14.705 2°41.518 275.4 11.6 280 16
2008-03-14 06:10:34 51°14.708 2°41.493 275.7 11.6 279 16
2008-03-14 06:10:39 51°14.71 2°41.468 276 11.6 280 16.1
2008-03-14 06:10:44 51°14.713 2°41.442 275.8 11.6 280 16.1
2008-03-14 06:10:50 51°14.716 2°41.412 276 11.6 279 16
2008-03-14 06:10:54 51°14.718 2°41.391 276 11.6 279 16
2008-03-14 06:10:59 51°14.721 2°41.366 275.5 11.7 279 15.9
2008-03-14 06:11:04 51°14.723 2°41.341 275.2 11.5 278 15.8
2008-03-14 06:11:09 51°14.725 2°41.316 275 11.6 279 15.6
2008-03-14 06:11:14 51°14.727 2°41.29 275.3 11.6 276 15.6
2008-03-14 06:11:19 51°14.73 2°41.265 274.3 11.6 278 15.5
2008-03-14 06:11:24 51°14.731 2°41.24 274 11.6 275 15.6
2008-03-14 06:11:29 51°14.733 2°41.214 273.4 11.6 277 15.7
2008-03-14 06:11:34 51°14.735 2°41.188 273 11.7 277 15.6
2008-03-14 06:11:39 51°14.737 2°41.163 273.1 11.8 277 15.4
2008-03-14 06:11:44 51°14.739 2°41.137 273.5 11.6 277 15.3
2008-03-14 06:11:49 51°14.741 2°41.112 273.9 11.7 277 15.3
2008-03-14 06:11:54 51°14.743 2°41.086 273.8 11.7 277 15.2
2008-03-14 06:11:59 51°14.745 2°41.06 273.8 11.7 277 15.1
2008-03-14 06:12:04 51°14.747 2°41.035 273.6 11.7 277 15
2008-03-14 06:12:09 51°14.749 2°41.009 273.3 11.7 277 15.1
2008-03-14 06:12:14 51°14.751 2°40.983 273.5 11.7 276 15.3
2008-03-14 06:12:19 51°14.753 2°40.958 273 11.7 278 15.3
2008-03-14 06:12:24 51°14.754 2°40.932 273.2 11.6 277 15.4
2008-03-14 06:12:29 51°14.756 2°40.907 272.9 11.6 277 15.4
2008-03-14 06:12:34 51°14.759 2°40.881 273.1 11.7 278 15.4
2008-03-14 06:12:39 51°14.761 2°40.856 273.5 11.5 277 14.9
2008-03-14 06:12:44 51°14.763 2°40.831 273.5 11.5 277 15.4
2008-03-14 06:12:49 51°14.764 2°40.806 273.1 11.5 278 14.7
2008-03-14 06:12:54 51°14.767 2°40.781 273.6 11.5 277 14.9
2008-03-14 06:12:59 51°14.769 2°40.755 273.3 11.5 278 14.6
2008-03-14 06:13:04 51°14.77 2°40.73 273.2 11.6 277 14.7
2008-03-14 06:13:10 51°14.773 2°40.7 273.5 11.5 276 14.9
2008-03-14 06:13:14 51°14.774 2°40.679 273.1 11.5 275 14.5
2008-03-14 06:13:19 51°14.776 2°40.654 272.8 11.6 278 14.8
2008-03-14 06:13:24 51°14.778 2°40.629 273.5 11.5 276 14.5
2008-03-14 06:13:30 51°14.781 2°40.598 273.5 11.6 277 14.7
2008-03-14 06:13:34 51°14.782 2°40.578 273.7 11.6 276 14.8
2008-03-14 06:13:39 51°14.784 2°40.553 273.6 11.6 276 14.7
2008-03-14 06:13:44 51°14.786 2°40.527 273.1 11.7 278 14.9
2008-03-14 06:13:49 51°14.788 2°40.501 274.1 11.6 276 14.5
2008-03-14 06:13:54 51°14.79 2°40.476 274.1 11.6 277 14.6
2008-03-14 06:13:59 51°14.791 2°40.45 273 11.6 275 14.7
2008-03-14 06:14:04 51°14.793 2°40.425 272.2 11.7 276 15
2008-03-14 06:14:09 51°14.794 2°40.399 272.1 11.6 275 15.2
2008-03-14 06:14:14 51°14.795 2°40.373 271.9 11.7 275 14.8
2008-03-14 06:14:19 51°14.796 2°40.348 271.7 11.6 275 14.8
2008-03-14 06:14:24 51°14.798 2°40.322 271.7 11.6 274 14.9
2008-03-14 06:14:29 51°14.799 2°40.297 271 11.6 276 15.5
2008-03-14 06:14:34 51°14.8 2°40.271 271.9 11.5 274 14.9
2008-03-14 06:14:39 51°14.802 2°40.246 271.4 11.6 277 15.6
2008-03-14 06:14:44 51°14.803 2°40.22 271.9 11.6 275 15.4
2008-03-14 06:14:49 51°14.805 2°40.195 272.1 11.6 276 15.4
2008-03-14 06:14:54 51°14.807 2°40.169 272.4 11.6 276 15.2
2008-03-14 06:14:59 51°14.808 2°40.144 272.5 11.6 275 15.5
2008-03-14 06:15:04 51°14.81 2°40.118 272 11.6 276 15.8
2008-03-14 06:15:10 51°14.812 2°40.088 272.1 11.5 277 15.5
2008-03-14 06:15:14 51°14.814 2°40.067 272.4 11.6 278 15.6
2008-03-14 06:15:19 51°14.815 2°40.042 273.2 11.6 275 15.8
2008-03-14 06:15:24 51°14.817 2°40.017 272.8 11.6 277 15.8
2008-03-14 06:15:30 51°14.818 2°39.986 272.5 11.6 274 15.9
2008-03-14 06:15:34 51°14.82 2°39.966 271.5 11.5 275 16.1
2008-03-14 06:15:39 51°14.82 2°39.94 271.3 11.5 273 16
2008-03-14 06:15:44 51°14.822 2°39.915 270.7 11.5 276 16
2008-03-14 06:15:49 51°14.823 2°39.89 271.2 11.5 274 16.3
2008-03-14 06:15:54 51°14.824 2°39.864 271.2 11.5 274 17
2008-03-14 06:15:59 51°14.826 2°39.839 270.9 11.5 275 16.6
2008-03-14 06:16:04 51°14.827 2°39.814 271.4 11.5 275 16.2
2008-03-14 06:16:09 51°14.828 2°39.789 271.5 11.6 274 16.6
2008-03-14 06:16:14 51°14.83 2°39.763 271.1 11.6 275 17.2
2008-03-14 06:16:19 51°14.831 2°39.738 271.3 11.5 275 16.6
2008-03-14 06:16:24 51°14.833 2°39.713 271.5 11.4 275 16.5
2008-03-14 06:16:29 51°14.834 2°39.688 271.5 11.5 275 16.9
2008-03-14 06:16:34 51°14.836 2°39.662 271.4 11.4 275 17.5
2008-03-14 06:16:39 51°14.837 2°39.637 271.6 11.4 276 17
2008-03-14 06:16:44 51°14.839 2°39.612 271.9 11.5 275 17.1
2008-03-14 06:16:49 51°14.841 2°39.587 271.7 11.5 276 17.4
2008-03-14 06:16:54 51°14.842 2°39.561 271.6 11.5 275 17.3
2008-03-14 06:16:59 51°14.843 2°39.536 271.5 11.4 275 17
2008-03-14 06:17:04 51°14.845 2°39.511 271.5 11.4 275 17.6
2008-03-14 06:17:09 51°14.846 2°39.486 271.5 11.3 275 16.8
2008-03-14 06:17:14 51°14.848 2°39.461 271.4 11.3 275 17.2
2008-03-14 06:17:19 51°14.849 2°39.436 271.2 11.4 275 17.4
2008-03-14 06:17:24 51°14.851 2°39.41 270.9 11.5 276 17.5
2008-03-14 06:17:30 51°14.852 2°39.38 271.6 11.3 274 17.7
2008-03-14 06:17:34 51°14.853 2°39.36 271 11.3 275 17.6
2008-03-14 06:17:39 51°14.855 2°39.335 271.3 11.3 275 17.8
2008-03-14 06:17:44 51°14.856 2°39.31 271.2 11.3 276 18.1
2008-03-14 06:17:50 51°14.858 2°39.28 271.4 11.5 274 18.2
2008-03-14 06:17:54 51°14.859 2°39.26 271.2 11.5 276 18.6
2008-03-14 06:17:59 51°14.86 2°39.234 271.4 11.5 274 18.7
2008-03-14 06:18:04 51°14.862 2°39.209 271.1 11.6 277 18.6
2008-03-14 06:18:09 51°14.863 2°39.183 271.2 11.5 273 19
2008-03-14 06:18:14 51°14.865 2°39.158 271.3 11.6 276 18.8
2008-03-14 06:18:19 51°14.866 2°39.132 271.4 11.5 275 18.7
2008-03-14 06:18:24 51°14.868 2°39.107 271.6 11.5 273 19.3
2008-03-14 06:18:29 51°14.868 2°39.082 270.4 11.4 272 19
2008-03-14 06:18:34 51°14.869 2°39.057 269 11.4 273 18.8
2008-03-14 06:18:39 51°14.869 2°39.032 268.8 11.4 270 19.2
2008-03-14 06:18:44 51°14.87 2°39.006 267.8 11.4 273 19.2
2008-03-14 06:18:49 51°14.87 2°38.981 268.5 11.4 270 19.5
2008-03-14 06:18:54 51°14.87 2°38.956 267.9 11.5 271 19.1
2008-03-14 06:18:59 51°14.87 2°38.931 267.5 11.4 270 19.3
2008-03-14 06:19:04 51°14.871 2°38.906 267 11.5 272 19.1
2008-03-14 06:19:09 51°14.871 2°38.88 267.8 11.5 271 19.5
2008-03-14 06:19:14 51°14.872 2°38.855 267.9 11.5 272 19
2008-03-14 06:19:19 51°14.873 2°38.829 268.3 11.5 272 19.3
2008-03-14 06:19:24 51°14.873 2°38.804 268.5 11.5 272 19.1
2008-03-14 06:19:30 51°14.873 2°38.773 268.4 11.6 271 19.4
2008-03-14 06:19:34 51°14.874 2°38.753 268.1 11.5 273 19.2
2008-03-14 06:19:39 51°14.875 2°38.727 268.5 11.5 271 19.3
2008-03-14 06:19:44 51°14.875 2°38.702 267.8 11.5 272 19
2008-03-14 06:19:50 51°14.876 2°38.671 268.5 11.5 273 19.3
2008-03-14 06:19:54 51°14.877 2°38.651 269.3 11.5 273 19
2008-03-14 06:19:59 51°14.878 2°38.626 269.5 11.5 275 19.4
2008-03-14 06:20:04 51°14.88 2°38.6 270.4 11.4 273 19.2
2008-03-14 06:20:09 51°14.88 2°38.575 270.5 11.4 274 18.9
2008-03-14 06:20:14 51°14.882 2°38.55 270.3 11.4 275 19.1
2008-03-14 06:20:19 51°14.883 2°38.525 270.5 11.4 273 18.8
2008-03-14 06:20:24 51°14.884 2°38.5 270.4 11.5 274 18.8
2008-03-14 06:20:29 51°14.885 2°38.475 270.3 11.3 274 18.8
2008-03-14 06:20:34 51°14.886 2°38.45 271.1 11.4 273 18.8
2008-03-14 06:20:39 51°14.887 2°38.424 270.2 11.4 274 18.4
2008-03-14 06:20:44 51°14.888 2°38.399 270.4 11.4 273 18.6
2008-03-14 06:20:49 51°14.888 2°38.374 269.9 11.4 273 18.5
2008-03-14 06:20:54 51°14.889 2°38.349 269.8 11.4 273 18.2
2008-03-14 06:20:59 51°14.89 2°38.323 269.9 11.4 272 18.4
2008-03-14 06:21:04 51°14.892 2°38.298 269.6 11.5 275 18.2
2008-03-14 06:21:09 51°14.892 2°38.273 270.9 11.5 273 17.7
2008-03-14 06:21:14 51°14.893 2°38.247 270.1 11.5 274 17.7
2008-03-14 06:21:19 51°14.894 2°38.222 270.5 11.6 273 17.6
2008-03-14 06:21:24 51°14.895 2°38.196 270.4 11.6 275 17.3
2008-03-14 06:21:29 51°14.896 2°38.17 270.6 11.5 272 17.1
2008-03-14 06:21:34 51°14.898 2°38.145 270.5 11.6 274 17.2
2008-03-14 06:21:39 51°14.898 2°38.119 270.6 11.5 273 17
2008-03-14 06:21:44 51°14.899 2°38.094 270 11.6 274 16.7
2008-03-14 06:21:50 51°14.9 2°38.063 270.2 11.5 273 16.1
2008-03-14 06:21:54 51°14.901 2°38.043 270.5 11.6 273 15.9
2008-03-14 06:21:59 51°14.902 2°38.017 270 11.5 273 15.5
2008-03-14 06:22:04 51°14.902 2°37.992 270.1 11.5 273 15.5
2008-03-14 06:22:09 51°14.904 2°37.967 269.8 11.5 273 14.9
2008-03-14 06:22:14 51°14.904 2°37.941 270.6 11.5 273 14.3
2008-03-14 06:22:19 51°14.905 2°37.916 270.2 11.5 273 14.7
2008-03-14 06:22:24 51°14.906 2°37.89 270.6 11.6 272 14.4
2008-03-14 06:22:30 51°14.907 2°37.86 270.1 11.5 273 13.7
2008-03-14 06:22:34 51°14.908 2°37.839 270.4 11.5 272 13.8
2008-03-14 06:22:39 51°14.909 2°37.814 270 11.6 274 13.3
2008-03-14 06:22:44 51°14.91 2°37.788 270.5 11.6 274 12.8
2008-03-14 06:22:49 51°14.911 2°37.763 270.6 11.6 274 13.5
2008-03-14 06:22:54 51°14.912 2°37.737 270.4 11.6 274 13.2
2008-03-14 06:22:59 51°14.913 2°37.712 270.6 11.6 272 13.1
2008-03-14 06:23:04 51°14.914 2°37.686 270.1 11.6 273 12.4
2008-03-14 06:23:09 51°14.914 2°37.661 269.8 11.5 273 12.5
2008-03-14 06:23:14 51°14.916 2°37.635 269.8 11.6 274 13.1
2008-03-14 06:23:19 51°14.916 2°37.61 270.2 11.5 273 12.7
2008-03-14 06:23:24 51°14.918 2°37.584 270 11.5 274 12
2008-03-14 06:23:29 51°14.918 2°37.559 270.5 11.4 273 12.5
2008-03-14 06:23:34 51°14.919 2°37.534 270.3 11.5 274 12.6
2008-03-14 06:23:39 51°14.92 2°37.509 269.9 11.5 273 12.7
2008-03-14 06:23:44 51°14.921 2°37.483 270.3 11.5 273 11.8
2008-03-14 06:23:50 51°14.922 2°37.453 271.1 11.5 273 11
2008-03-14 06:23:54 51°14.923 2°37.433 270.1 11.5 274 11.7
2008-03-14 06:23:59 51°14.924 2°37.407 270.6 11.6 273 12.3
2008-03-14 06:24:04 51°14.925 2°37.382 270.5 11.5 274 11.7
2008-03-14 06:24:09 51°14.927 2°37.356 270.6 11.5 274 11.9
2008-03-14 06:24:14 51°14.927 2°37.331 271.1 11.5 273 12.6
2008-03-14 06:24:19 51°14.928 2°37.305 271 11.6 274 12.3
2008-03-14 06:24:24 51°14.93 2°37.28 270.9 11.6 274 12
2008-03-14 06:24:30 51°14.931 2°37.249 271.1 11.6 274 12
2008-03-14 06:24:34 51°14.932 2°37.229 271.1 11.6 274 12.7
2008-03-14 06:24:39 51°14.933 2°37.203 270.5 11.6 273 12.4
2008-03-14 06:24:44 51°14.934 2°37.178 270.4 11.6 272 12.6
2008-03-14 06:24:49 51°14.934 2°37.152 269.5 11.6 273 12.3
2008-03-14 06:24:54 51°14.935 2°37.127 269.2 11.5 272 10.8
2008-03-14 06:24:59 51°14.935 2°37.101 269.3 11.4 271 11
2008-03-14 06:25:04 51°14.936 2°37.076 268.7 11.6 271 12.6
2008-03-14 06:25:09 51°14.936 2°37.05 268.5 11.7 271 13.7
2008-03-14 06:25:14 51°14.937 2°37.025 268.3 11.6 273 13.7
2008-03-14 06:25:19 51°14.937 2°36.999 268.4 11.6 272 11.6
2008-03-14 06:25:24 51°14.938 2°36.974 268.5 11.5 273 13
2008-03-14 06:25:29 51°14.939 2°36.948 269 11.6 271 13.9
2008-03-14 06:25:34 51°14.939 2°36.923 269 11.6 272 14
2008-03-14 06:25:39 51°14.94 2°36.897 268.3 11.5 273 12.1
2008-03-14 06:25:44 51°14.941 2°36.872 268.6 11.4 273 13.9
2008-03-14 06:25:49 51°14.941 2°36.847 269.2 11.4 273 14.4
2008-03-14 06:25:54 51°14.942 2°36.822 269.2 11.3 272 15.1
2008-03-14 06:25:59 51°14.943 2°36.796 269.2 11.4 272 15.1
2008-03-14 06:26:04 51°14.943 2°36.771 268.6 11.3 271 14.9
2008-03-14 06:26:09 51°14.944 2°36.746 267.7 11.4 272 15
2008-03-14 06:26:14 51°14.944 2°36.721 267.9 11.4 270 15.2
2008-03-14 06:26:19 51°14.944 2°36.696 267.1 11.4 272 15.6
2008-03-14 06:26:24 51°14.944 2°36.671 266.9 11.3 270 15.8
2008-03-14 06:26:29 51°14.945 2°36.646 266.6 11.4 272 16.5
2008-03-14 06:26:34 51°14.945 2°36.621 267 11.3 272 16.5
2008-03-14 06:26:39 51°14.946 2°36.596 267.4 11.3 271 16.3
2008-03-14 06:26:44 51°14.946 2°36.571 267.3 11.3 271 15.9
2008-03-14 06:26:50 51°14.947 2°36.541 267 11.3 272 16.3
2008-03-14 06:26:54 51°14.947 2°36.521 267.5 11.3 273 16.7
2008-03-14 06:26:59 51°14.948 2°36.496 268 11.3 271 17.2
2008-03-14 06:27:04 51°14.949 2°36.471 267.4 11.4 273 17.3
2008-03-14 06:27:10 51°14.949 2°36.441 268 11.4 271 17.4
2008-03-14 06:27:14 51°14.949 2°36.421 267.6 11.3 272 17
2008-03-14 06:27:19 51°14.949 2°36.396 267.6 11.3 271 17.2
2008-03-14 06:27:24 51°14.951 2°36.371 267.3 11.2 272 17.1
2008-03-14 06:27:29 51°14.951 2°36.346 267.8 11.4 271 17.3
2008-03-14 06:27:34 51°14.951 2°36.321 266.8 11.3 272 17.8
2008-03-14 06:27:39 51°14.952 2°36.297 267.6 11.3 272 17.8
2008-03-14 06:27:44 51°14.953 2°36.272 267.6 11.2 272 17.9
2008-03-14 06:27:49 51°14.953 2°36.247 267.2 11.3 273 17.9
2008-03-14 06:27:54 51°14.954 2°36.222 267.7 11.2 272 18.5
2008-03-14 06:27:59 51°14.954 2°36.197 267.5 11.4 272 18.3
2008-03-14 06:28:04 51°14.955 2°36.173 267 11.2 272 18.6
2008-03-14 06:28:09 51°14.955 2°36.148 267.2 11.2 272 18.3
2008-03-14 06:28:14 51°14.956 2°36.123 267 11.3 271 18.5
2008-03-14 06:28:19 51°14.956 2°36.098 267.1 11.4 272 18.2
2008-03-14 06:28:24 51°14.957 2°36.073 267.1 11.3 272 18.6
2008-03-14 06:28:29 51°14.958 2°36.047 267 11.4 273 19.2
2008-03-14 06:28:34 51°14.958 2°36.022 267.7 11.4 271 18.5
2008-03-14 06:28:39 51°14.959 2°35.997 267.2 11.3 273 19
2008-03-14 06:28:45 51°14.96 2°35.967 267.3 11.4 273 19.3
2008-03-14 06:28:50 51°14.96 2°35.942 267.7 11.4 272 19.3
2008-03-14 06:28:54 51°14.961 2°35.922 267.2 11.4 272 18.7
2008-03-14 06:28:59 51°14.961 2°35.897 267.1 11.4 273 18.8
2008-03-14 06:29:04 51°14.962 2°35.872 267.6 11.4 272 19.1
2008-03-14 06:29:10 51°14.962 2°35.842 267.5 11.3 272 19.2
2008-03-14 06:29:14 51°14.963 2°35.822 267 11.4 272 19.9
2008-03-14 06:29:19 51°14.963 2°35.796 267.3 11.4 272 19.2
2008-03-14 06:29:24 51°14.964 2°35.771 267.4 11.4 271 20
2008-03-14 06:29:29 51°14.965 2°35.746 267.5 11.3 273 19.4
2008-03-14 06:29:34 51°14.965 2°35.721 267.3 11.3 271 19.4
2008-03-14 06:29:39 51°14.966 2°35.696 267 11.4 272 20.3
2008-03-14 06:29:44 51°14.966 2°35.671 267.3 11.4 272 19.5
2008-03-14 06:29:49 51°14.967 2°35.646 267.3 11.4 272 20.2
2008-03-14 06:29:54 51°14.967 2°35.62 267.4 11.5 272 19.5
2008-03-14 06:29:59 51°14.968 2°35.595 267.1 11.4 271 20.3
2008-03-14 06:30:04 51°14.968 2°35.57 267.1 11.4 271 19.6
2008-03-14 06:30:09 51°14.969 2°35.544 266.9 11.4 273 20.2
2008-03-14 06:30:14 51°14.969 2°35.519 267.5 11.4 272 20.4
2008-03-14 06:30:19 51°14.97 2°35.494 267.4 11.4 271 20.7
2008-03-14 06:30:24 51°14.97 2°35.469 267 11.4 271 20.9
2008-03-14 06:30:29 51°14.971 2°35.443 266.7 11.2 272 21
2008-03-14 06:30:34 51°14.971 2°35.418 267 11.3 273 22.1
2008-03-14 06:30:39 51°14.972 2°35.393 267.4 11.4 272 21.8
2008-03-14 06:30:44 51°14.973 2°35.368 267.6 11.3 272 21.9
2008-03-14 06:30:49 51°14.973 2°35.343 267.6 11.4 271 22.8
2008-03-14 06:30:54 51°14.973 2°35.318 267.2 11.4 272 23.2
2008-03-14 06:30:59 51°14.974 2°35.293 267.5 11.5 271 23.4
2008-03-14 06:31:05 51°14.974 2°35.262 267.3 11.5 272 23.6
2008-03-14 06:31:10 51°14.974 2°35.237 267.2 11.4 270 23.9
2008-03-14 06:31:14 51°14.975 2°35.216 266.6 11.5 272 23.9
2008-03-14 06:31:19 51°14.975 2°35.191 266.9 11.4 270 24.3
2008-03-14 06:31:24 51°14.975 2°35.166 266.4 11.5 272 24.7
2008-03-14 06:31:30 51°14.976 2°35.135 267 11.4 271 25
2008-03-14 06:31:34 51°14.977 2°35.115 267.5 11.5 272 24.8
2008-03-14 06:31:39 51°14.978 2°35.09 267.3 11.5 272 25.5
2008-03-14 06:31:44 51°14.978 2°35.064 266.9 11.5 273 25.4
2008-03-14 06:31:49 51°14.979 2°35.039 267 11.5 271 26.4
2008-03-14 06:31:54 51°14.979 2°35.013 266.8 11.5 273 26.8
2008-03-14 06:31:59 51°14.98 2°34.988 267 11.5 272 26.6
2008-03-14 06:32:04 51°14.98 2°34.962 267 11.5 272 27.1
2008-03-14 06:32:09 51°14.981 2°34.937 267 11.4 270 27.2
2008-03-14 06:32:14 51°14.981 2°34.912 266.8 11.5 271 27.4
2008-03-14 06:32:19 51°14.981 2°34.887 266.3 11.5 272 27.2
2008-03-14 06:32:24 51°14.981 2°34.861 267.3 11.5 271 27.2
2008-03-14 06:32:29 51°14.982 2°34.836 267 11.6 273 27.5
2008-03-14 06:32:34 51°14.982 2°34.811 267.3 11.5 272 28.1
2008-03-14 06:32:39 51°14.983 2°34.785 267.7 11.5 273 27.9
2008-03-14 06:32:44 51°14.983 2°34.76 268 11.5 271 28.1
2008-03-14 06:32:49 51°14.985 2°34.734 267.5 11.5 273 27.9
2008-03-14 06:32:54 51°14.985 2°34.709 267.7 11.5 271 28